createdAt,value
2019-02-16T00:01:09.948Z,57.90
2019-02-16T00:06:15.321Z,57.90
2019-02-16T00:11:20.633Z,56.90
2019-02-16T00:16:25.944Z,57.10
2019-02-16T00:21:31.221Z,55.90
2019-02-16T00:26:36.517Z,55.20
2019-02-16T00:31:41.813Z,54.90
2019-02-16T00:36:47.127Z,54.80
2019-02-16T00:41:52.433Z,54.90
2019-02-16T00:46:57.755Z,56.20
2019-02-16T00:52:03.058Z,57.80
2019-02-16T00:57:08.419Z,58.80
2019-02-16T01:02:13.793Z,60.00
2019-02-16T01:07:19.109Z,60.00
2019-02-16T01:12:24.402Z,59.30
2019-02-16T01:17:29.711Z,58.80
2019-02-16T01:22:34.984Z,57.80
2019-02-16T01:27:40.285Z,57.40
2019-02-16T01:32:45.579Z,57.90
2019-02-16T01:37:50.871Z,59.20
2019-02-16T01:42:56.173Z,58.90
2019-02-16T01:48:01.481Z,58.60
2019-02-16T01:53:06.816Z,57.20
2019-02-16T01:58:12.103Z,55.10
2019-02-16T02:03:17.408Z,57.40
2019-02-16T02:08:22.701Z,57.70
2019-02-16T02:13:28.272Z,57.30
2019-02-16T02:18:33.554Z,58.20
2019-02-16T02:23:38.870Z,57.70
2019-02-16T02:28:44.168Z,56.30
2019-02-16T02:33:49.470Z,54.90
2019-02-16T02:38:54.767Z,54.80
2019-02-16T02:44:00.073Z,54.40
2019-02-16T02:49:05.351Z,54.20
2019-02-16T02:54:10.634Z,53.50
2019-02-16T02:59:15.933Z,53.60
2019-02-16T03:04:21.241Z,53.50
2019-02-16T03:09:26.554Z,53.90
2019-02-16T03:14:32.097Z,54.80
2019-02-16T03:19:37.413Z,55.70
2019-02-16T03:24:42.720Z,54.80
2019-02-16T03:29:51.275Z,54.40
2019-02-16T03:35:02.369Z,53.60
2019-02-16T03:40:09.960Z,54.40
2019-02-16T03:45:15.277Z,54.90
2019-02-16T03:50:20.576Z,54.20
2019-02-16T03:55:25.869Z,54.00
2019-02-16T04:00:31.167Z,54.20
2019-02-16T04:05:36.481Z,55.40
2019-02-16T04:10:41.792Z,56.80
2019-02-16T04:15:47.250Z,58.20
2019-02-16T04:20:52.479Z,59.10
2019-02-16T04:25:57.777Z,56.30
2019-02-16T04:31:03.074Z,57.50
2019-02-16T04:36:08.358Z,58.70
2019-02-16T04:41:13.641Z,59.70
2019-02-16T04:46:19.009Z,59.40
2019-02-16T04:51:24.388Z,57.90
2019-02-16T04:56:29.718Z,58.90
2019-02-16T05:01:34.981Z,62.70
2019-02-16T05:06:40.281Z,62.30
2019-02-16T05:11:45.561Z,60.80
2019-02-16T05:16:50.881Z,63.60
2019-02-16T05:21:56.178Z,61.80
2019-02-16T05:27:01.482Z,64.00
2019-02-16T05:32:06.786Z,62.40
2019-02-16T05:37:12.074Z,63.20
2019-02-16T05:42:18.380Z,63.10
2019-02-16T05:47:23.673Z,62.50
2019-02-16T05:52:29.090Z,64.80
2019-02-16T05:57:34.339Z,62.50
2019-02-16T06:02:39.630Z,61.90
2019-02-16T06:07:44.933Z,60.70
2019-02-16T06:12:50.221Z,63.30
2019-02-16T06:17:55.505Z,64.10
2019-02-16T06:23:04.469Z,63.10
2019-02-16T06:28:07.785Z,62.10
2019-02-16T06:33:13.085Z,63.30
2019-02-16T06:38:18.383Z,61.40
2019-02-16T06:43:23.666Z,60.70
2019-02-16T06:48:28.964Z,60.90
2019-02-16T06:53:34.250Z,60.60
2019-02-16T06:58:39.559Z,62.40
2019-02-16T07:03:44.921Z,62.00
2019-02-16T07:08:50.222Z,62.40
2019-02-16T07:13:55.504Z,65.00
2019-02-16T07:19:05.334Z,65.80
2019-02-16T07:24:11.926Z,65.80
2019-02-16T07:29:17.222Z,66.60
2019-02-16T07:34:22.919Z,62.70
2019-02-16T07:39:28.261Z,63.30
2019-02-16T07:44:37.914Z,66.20
2019-02-16T07:49:56.699Z,68.00
2019-02-16T07:55:04.003Z,64.30
2019-02-16T08:00:10.933Z,63.70
2019-02-16T08:05:36.121Z,61.90
2019-02-16T08:10:59.277Z,61.70
2019-02-16T08:16:06.232Z,60.30
2019-02-16T08:21:19.188Z,63.30
2019-02-16T08:26:26.126Z,62.30
2019-02-16T08:31:38.662Z,60.60
2019-02-16T08:36:54.687Z,59.70
2019-02-16T08:42:01.628Z,60.00
2019-02-16T08:47:17.269Z,59.30
2019-02-16T08:52:26.884Z,60.50
2019-02-16T08:57:42.852Z,60.70
2019-02-16T09:20:18.485Z,59.00
2019-02-16T09:25:31.163Z,58.50
2019-02-16T09:30:38.114Z,58.10
2019-02-16T09:35:45.075Z,59.20
2019-02-16T09:40:54.774Z,58.80
2019-02-16T09:46:01.736Z,52.90
2019-02-16T09:51:11.721Z,52.30
2019-02-16T09:56:18.648Z,46.80
2019-02-16T10:01:28.568Z,45.20
2019-02-16T10:06:50.608Z,41.40
2019-02-16T10:11:57.548Z,41.40
2019-02-16T10:17:08.543Z,39.40
2019-02-16T10:22:16.262Z,40.20
2019-02-16T10:27:26.267Z,42.50
2019-02-16T10:32:35.924Z,45.20
2019-02-16T10:37:42.969Z,46.50
2019-02-16T10:42:49.919Z,46.70
2019-02-16T10:47:56.919Z,46.40
2019-02-16T10:53:03.916Z,47.30
2019-02-16T10:58:10.881Z,44.90
2019-02-16T11:03:25.458Z,45.90
2019-02-16T11:08:32.522Z,45.90
2019-02-16T11:13:44.335Z,45.60
2019-02-16T11:18:57.020Z,45.60
2019-02-16T11:24:03.954Z,45.70
2019-02-16T11:29:11.250Z,43.90
2019-02-16T11:34:25.144Z,44.40
2019-02-16T11:39:47.110Z,44.20
2019-02-16T11:44:59.789Z,42.90
2019-02-16T11:50:08.591Z,42.20
2019-02-16T11:55:16.698Z,41.70
2019-02-16T12:00:37.188Z,40.90
2019-02-16T12:05:46.969Z,40.20
2019-02-16T12:11:00.282Z,39.40
2019-02-16T12:16:19.330Z,39.70
2019-02-16T12:21:38.609Z,41.20
2019-02-16T12:27:01.867Z,37.90
2019-02-16T12:32:11.970Z,35.70
2019-02-16T12:37:18.908Z,36.30
2019-02-16T12:42:37.758Z,34.80
2019-02-16T12:47:47.188Z,34.10
2019-02-16T12:52:54.117Z,31.40
2019-02-16T12:58:01.069Z,31.00
2019-02-16T13:03:24.237Z,27.00
2019-02-16T13:08:47.661Z,26.60
2019-02-16T13:14:00.795Z,24.90
2019-02-16T13:19:07.722Z,24.50
2019-02-16T13:24:20.268Z,23.70
2019-02-16T13:29:36.433Z,23.40
2019-02-16T13:34:46.612Z,23.10
2019-02-16T13:40:05.666Z,23.90
2019-02-16T13:45:18.322Z,24.90
2019-02-16T13:50:25.268Z,24.50
2019-02-16T13:55:48.728Z,27.10
2019-02-16T14:00:55.694Z,26.30
2019-02-16T14:06:14.445Z,27.30
2019-02-16T14:11:21.396Z,26.10
2019-02-16T14:16:31.623Z,28.30
2019-02-16T14:21:36.972Z,28.40
2019-02-16T14:26:42.292Z,28.80
2019-02-16T14:31:47.598Z,30.00
2019-02-16T14:36:52.929Z,30.10
2019-02-16T14:41:58.330Z,29.60
2019-02-16T14:47:03.593Z,29.80
2019-02-16T14:52:08.902Z,30.90
2019-02-16T14:57:14.228Z,31.60
2019-02-16T15:02:19.534Z,30.40
2019-02-16T15:07:24.835Z,30.00
2019-02-16T15:12:30.157Z,28.80
2019-02-16T15:17:35.474Z,28.50
2019-02-16T15:22:40.843Z,29.60
2019-02-16T15:27:46.152Z,30.90
2019-02-16T15:32:51.433Z,31.60
2019-02-16T15:37:57.702Z,31.00
2019-02-16T15:43:02.997Z,30.40
2019-02-16T15:48:08.305Z,31.10
2019-02-16T15:53:13.632Z,32.50
2019-02-16T15:58:18.935Z,33.60
2019-02-16T16:03:24.273Z,35.30
2019-02-16T16:08:43.144Z,35.80
2019-02-16T16:13:50.067Z,37.40
2019-02-16T16:18:57.013Z,38.80
2019-02-16T16:24:03.990Z,40.20
2019-02-16T16:29:27.334Z,40.30
2019-02-16T16:34:34.335Z,40.50
2019-02-16T16:39:57.525Z,40.70
2019-02-16T16:45:04.479Z,39.20
2019-02-16T16:50:20.401Z,38.20
2019-02-16T16:55:27.404Z,38.20
2019-02-16T17:00:36.986Z,40.20
2019-02-16T17:05:59.885Z,39.90
2019-02-16T17:11:07.015Z,39.80
2019-02-16T17:16:16.913Z,38.30
2019-02-16T17:21:23.973Z,37.90
2019-02-16T17:26:38.020Z,38.60
2019-02-16T17:31:45.216Z,38.90
2019-02-16T17:36:55.131Z,38.90
2019-02-16T17:42:02.125Z,39.10
2019-02-16T17:47:24.130Z,40.00
2019-02-16T17:52:31.118Z,41.70
2019-02-16T17:57:38.073Z,41.00
2019-02-16T18:02:48.125Z,41.20
2019-02-16T18:08:11.373Z,41.80
2019-02-16T18:13:19.273Z,41.80
2019-02-16T18:18:32.295Z,41.80
2019-02-16T18:23:44.970Z,42.70
2019-02-16T18:28:57.344Z,42.00
2019-02-16T18:34:06.336Z,41.00
2019-02-16T18:39:15.985Z,39.70
2019-02-16T18:44:41.806Z,39.70
2019-02-16T18:50:14.478Z,39.80
2019-02-16T18:55:38.092Z,40.10
2019-02-16T19:00:48.364Z,41.00
2019-02-16T19:06:01.101Z,41.80
2019-02-16T19:11:16.998Z,42.80
2019-02-16T19:16:23.974Z,42.30
2019-02-16T19:21:31.005Z,40.70
2019-02-16T19:26:43.715Z,41.20
2019-02-16T19:32:02.459Z,41.00
2019-02-16T19:37:09.456Z,40.20
2019-02-16T19:42:16.652Z,40.10
2019-02-16T19:47:32.640Z,40.40
2019-02-16T19:52:39.577Z,40.00
2019-02-16T19:57:46.601Z,39.90
2019-02-16T20:02:53.557Z,40.30
2019-02-16T20:08:00.509Z,40.30
2019-02-16T20:13:13.426Z,40.00
2019-02-16T20:18:29.377Z,40.10
2019-02-16T20:23:42.374Z,40.10
2019-02-16T20:28:55.009Z,40.50
2019-02-16T20:34:07.808Z,40.50
2019-02-16T20:39:31.490Z,40.80
2019-02-16T20:44:38.738Z,40.30
2019-02-16T20:49:45.834Z,40.00
2019-02-16T20:54:55.804Z,39.50
2019-02-16T21:00:02.729Z,39.50
2019-02-16T21:05:12.446Z,41.10
2019-02-16T21:10:34.410Z,41.70
2019-02-16T21:15:59.444Z,41.40
2019-02-16T21:21:22.917Z,41.60
2019-02-16T21:26:45.093Z,41.00
2019-02-16T21:31:52.127Z,40.60
2019-02-16T21:37:15.570Z,44.30
2019-02-16T21:42:25.176Z,46.80
2019-02-16T21:47:32.141Z,48.70
2019-02-16T21:52:45.043Z,46.80
2019-02-16T21:58:10.095Z,45.20
2019-02-16T22:03:19.571Z,44.40
2019-02-16T22:08:26.508Z,44.40
2019-02-16T22:13:31.809Z,44.60
2019-02-16T22:18:38.185Z,44.00
2019-02-16T22:23:43.485Z,43.60
2019-02-16T22:28:48.796Z,44.30
2019-02-16T22:33:54.100Z,44.20
2019-02-16T22:38:59.444Z,44.50
2019-02-16T22:44:04.759Z,44.50
2019-02-16T22:49:10.052Z,44.00
2019-02-16T22:54:15.417Z,43.30
2019-02-16T22:59:20.842Z,42.70
2019-02-16T23:04:27.512Z,42.60
2019-02-16T23:09:33.027Z,42.00
2019-02-16T23:14:38.311Z,41.70
2019-02-16T23:19:43.631Z,42.30
2019-02-16T23:24:48.929Z,42.60
2019-02-16T23:29:54.814Z,43.00
2019-02-16T23:35:01.570Z,43.00
2019-02-16T23:40:08.600Z,43.50
2019-02-16T23:45:13.920Z,43.80
2019-02-16T23:50:19.362Z,43.60
2019-02-16T23:55:24.681Z,42.90
